createdAt,value
2022-08-19T00:01:53.336Z,99156.78
2022-08-19T00:04:23.532Z,99154.44
2022-08-19T00:06:52.833Z,99157.19
2022-08-19T00:09:22.324Z,99144.31
2022-08-19T00:11:50.538Z,99151.72
2022-08-19T00:14:19.458Z,99145.91
2022-08-19T00:16:49.690Z,99145.16
2022-08-19T00:19:18.499Z,99149.38
2022-08-19T00:21:46.564Z,99149.91
2022-08-19T00:24:16.526Z,99146.47
2022-08-19T00:26:45.625Z,99158.47
2022-08-19T00:29:16.015Z,99152.63
2022-08-19T00:31:45.127Z,99150.91
2022-08-19T00:34:15.192Z,99146.59
2022-08-19T00:36:44.118Z,99143.81
2022-08-19T00:39:12.921Z,99137.63
2022-08-19T00:41:41.348Z,99134.25
2022-08-19T00:44:11.947Z,99131.00
2022-08-19T00:46:42.049Z,99137.72
2022-08-19T00:49:15.719Z,99124.69
2022-08-19T00:51:49.071Z,99122.59
2022-08-19T00:54:17.725Z,99124.47
2022-08-19T00:56:46.753Z,99127.97
2022-08-19T00:59:16.465Z,99110.25
2022-08-19T01:02:04.818Z,99103.47
2022-08-19T01:04:32.916Z,99107.28
2022-08-19T01:07:03.948Z,99101.94
2022-08-19T01:09:33.075Z,99105.72
2022-08-19T01:12:01.163Z,99112.22
2022-08-19T01:14:29.203Z,99112.94
2022-08-19T01:16:58.306Z,99112.47
2022-08-19T01:19:31.363Z,99109.31
2022-08-19T01:22:19.163Z,99118.88
2022-08-19T01:24:50.582Z,99110.63
2022-08-19T01:27:20.604Z,99117.97
2022-08-19T01:29:48.935Z,99120.63
2022-08-19T01:32:32.500Z,99135.25
2022-08-19T01:35:03.142Z,99141.34
2022-08-19T01:37:31.724Z,99138.69
2022-08-19T01:40:01.226Z,99139.28
2022-08-19T01:42:30.454Z,99143.78
2022-08-19T01:44:59.601Z,99144.09
2022-08-19T01:47:27.560Z,99154.72
2022-08-19T01:49:55.729Z,99164.53
2022-08-19T01:52:23.724Z,99161.97
2022-08-19T01:54:51.708Z,99157.00
2022-08-19T01:57:21.382Z,99163.63
2022-08-19T01:59:49.442Z,99164.78
2022-08-19T02:02:17.624Z,99164.59
2022-08-19T02:04:46.825Z,99161.50
2022-08-19T02:07:14.803Z,99170.44
2022-08-19T02:09:42.816Z,99168.03
2022-08-19T02:12:10.826Z,99167.44
2022-08-19T02:14:40.232Z,99166.63
2022-08-19T02:17:08.581Z,99172.28
2022-08-19T02:19:36.723Z,99185.16
2022-08-19T02:22:09.104Z,99190.16
2022-08-19T02:24:37.254Z,99183.19
2022-08-19T02:27:05.833Z,99182.97
2022-08-19T02:29:33.892Z,99178.19
2022-08-19T02:32:03.324Z,99178.72
2022-08-19T02:34:31.293Z,99184.44
2022-08-19T02:37:03.498Z,99190.53
2022-08-19T02:39:30.864Z,99178.94
2022-08-19T02:42:00.734Z,99194.66
2022-08-19T02:44:31.845Z,99191.69
2022-08-19T02:47:00.226Z,99201.16
2022-08-19T02:49:29.688Z,99194.47
2022-08-19T02:52:02.838Z,99190.88
2022-08-19T02:54:31.322Z,99198.59
2022-08-19T02:56:59.471Z,99203.97
2022-08-19T02:59:27.705Z,99197.22
2022-08-19T03:01:55.799Z,99206.38
2022-08-19T03:04:24.390Z,99208.50
2022-08-19T03:06:57.533Z,99204.94
2022-08-19T03:09:27.569Z,99207.47
2022-08-19T03:11:55.635Z,99209.06
2022-08-19T03:14:24.229Z,99205.44
2022-08-19T03:16:54.110Z,99210.16
2022-08-19T03:19:23.350Z,99219.19
2022-08-19T03:21:53.609Z,99225.69
2022-08-19T03:24:22.423Z,99219.03
2022-08-19T03:26:52.484Z,99217.28
2022-08-19T03:29:30.747Z,99224.25
2022-08-19T03:32:01.780Z,99216.53
2022-08-19T03:34:33.046Z,99224.13
2022-08-19T03:37:07.026Z,99235.34
2022-08-19T03:39:35.242Z,99231.06
2022-08-19T03:42:45.452Z,99218.78
2022-08-19T03:44:51.757Z,99232.63
2022-08-19T03:47:19.775Z,99227.72
2022-08-19T03:49:48.165Z,99238.03
2022-08-19T03:52:17.600Z,99243.69
2022-08-19T03:54:45.978Z,99249.50
2022-08-19T03:57:13.944Z,99243.56
2022-08-19T03:59:41.958Z,99241.84
2022-08-19T04:02:12.539Z,99232.47
2022-08-19T04:04:42.649Z,99238.03
2022-08-19T04:07:11.945Z,99237.84
2022-08-19T04:09:41.356Z,99250.41
2022-08-19T04:12:10.412Z,99251.78
2022-08-19T04:14:38.457Z,99247.91
2022-08-19T04:17:06.794Z,99257.91
2022-08-19T04:19:36.192Z,99255.66
2022-08-19T04:22:05.016Z,99258.31
2022-08-19T04:24:33.407Z,99261.16
2022-08-19T04:27:03.714Z,99256.84
2022-08-19T04:29:32.016Z,99254.19
2022-08-19T04:32:08.926Z,99255.66
2022-08-19T04:35:02.654Z,99246.41
2022-08-19T04:37:27.389Z,99250.88
2022-08-19T04:40:14.876Z,99261.28
2022-08-19T04:42:44.304Z,99263.97
2022-08-19T04:45:15.723Z,99266.38
2022-08-19T04:47:49.263Z,99269.22
2022-08-19T04:50:26.548Z,99263.16
2022-08-19T04:52:56.638Z,99266.31
2022-08-19T04:55:26.417Z,99243.81
2022-08-19T04:57:56.345Z,99265.16
2022-08-19T05:00:24.632Z,99265.09
2022-08-19T05:02:52.866Z,99267.63
2022-08-19T05:05:21.910Z,99266.03
2022-08-19T05:07:50.154Z,99262.78
2022-08-19T05:10:18.263Z,99274.13
2022-08-19T05:12:46.607Z,99261.72
2022-08-19T05:15:16.214Z,99266.16
2022-08-19T05:18:04.357Z,99264.03
2022-08-19T05:20:50.035Z,99281.31
2022-08-19T05:23:21.901Z,99268.84
2022-08-19T05:25:51.341Z,99271.03
2022-08-19T05:28:19.689Z,99276.31
2022-08-19T05:30:51.829Z,99276.97
2022-08-19T05:33:20.408Z,99276.44
2022-08-19T05:35:50.345Z,99276.38
2022-08-19T05:38:19.524Z,99275.00
2022-08-19T05:40:49.237Z,99279.22
2022-08-19T05:43:17.606Z,99278.09
2022-08-19T05:45:46.001Z,99270.06
2022-08-19T05:48:16.251Z,99271.69
2022-08-19T05:50:45.449Z,99270.97
2022-08-19T05:53:13.457Z,99273.72
2022-08-19T05:55:41.538Z,99275.03
2022-08-19T05:58:09.712Z,99282.94
2022-08-19T06:00:38.401Z,99285.03
2022-08-19T06:03:11.727Z,99278.41
2022-08-19T06:05:52.108Z,99278.28
2022-08-19T06:08:34.372Z,99288.66
2022-08-19T06:11:19.755Z,99286.31
2022-08-19T06:13:50.549Z,99292.03
2022-08-19T06:16:23.383Z,99293.44
2022-08-19T06:18:53.668Z,99290.19
2022-08-19T06:21:28.205Z,99297.41
2022-08-19T06:23:57.694Z,99293.44
2022-08-19T06:26:27.415Z,99293.22
2022-08-19T06:28:55.685Z,99291.13
2022-08-19T06:31:26.799Z,99297.38
2022-08-19T06:33:56.446Z,99298.16
2022-08-19T06:36:32.707Z,99277.44
2022-08-19T06:39:01.181Z,99305.69
2022-08-19T06:41:29.630Z,99305.91
2022-08-19T06:43:57.892Z,99303.84
2022-08-19T06:46:27.422Z,99303.75
2022-08-19T06:48:56.053Z,99306.00
2022-08-19T06:51:26.497Z,99304.16
2022-08-19T06:54:00.716Z,99295.38
2022-08-19T06:56:35.757Z,99301.00
2022-08-19T06:59:05.380Z,99287.00
2022-08-19T07:01:38.426Z,99289.16
2022-08-19T07:04:08.358Z,99295.13
2022-08-19T07:06:44.226Z,99294.09
2022-08-19T07:09:18.507Z,99289.09
2022-08-19T07:11:48.062Z,99285.00
2022-08-19T07:14:19.451Z,99288.44
2022-08-19T07:16:48.699Z,99275.56
2022-08-19T07:19:18.900Z,99285.84
2022-08-19T07:21:49.770Z,99274.44
2022-08-19T07:24:19.282Z,99253.59
2022-08-19T07:26:51.969Z,99284.97
2022-08-19T07:29:25.803Z,99286.75
2022-08-19T07:32:00.133Z,99281.03
2022-08-19T07:34:30.460Z,99276.00
2022-08-19T07:37:00.562Z,99274.72
2022-08-19T07:39:32.060Z,99281.00
2022-08-19T07:42:02.063Z,99272.25
2022-08-19T07:44:30.524Z,99283.31
2022-08-19T07:47:00.970Z,99270.63
2022-08-19T07:49:29.223Z,99265.72
2022-08-19T07:52:02.322Z,99273.69
2022-08-19T07:54:32.744Z,99278.88
2022-08-19T07:57:00.987Z,99277.06
2022-08-19T07:59:30.121Z,99241.63
2022-08-19T08:02:00.645Z,99272.59
2022-08-19T08:04:47.107Z,99212.00
2022-08-19T08:07:34.172Z,99252.41
2022-08-19T08:10:03.675Z,99268.53
2022-08-19T08:12:36.788Z,99241.22
2022-08-19T08:15:12.759Z,99268.59
2022-08-19T08:17:49.242Z,99268.97
2022-08-19T08:20:20.750Z,99272.00
2022-08-19T08:23:08.198Z,99266.34
2022-08-19T08:25:37.516Z,99261.38
2022-08-19T08:28:06.627Z,99261.19
2022-08-19T08:30:36.918Z,99264.69
2022-08-19T08:33:05.616Z,99249.88
2022-08-19T08:35:34.503Z,99259.56
2022-08-19T08:38:05.302Z,99261.97
2022-08-19T08:40:41.651Z,99259.53
2022-08-19T08:43:23.980Z,99254.47
2022-08-19T08:46:02.078Z,99257.69
2022-08-19T08:48:38.092Z,99249.13
2022-08-19T08:51:09.729Z,99233.47
2022-08-19T08:53:42.068Z,99242.16
2022-08-19T08:56:14.062Z,99234.88
2022-08-19T08:58:54.699Z,99242.75
2022-08-19T09:01:30.215Z,99230.88
2022-08-19T09:04:02.777Z,99234.59
2022-08-19T09:06:40.741Z,99232.50
2022-08-19T09:09:16.853Z,99233.56
2022-08-19T09:11:56.109Z,99218.97
2022-08-19T09:14:52.318Z,99225.97
2022-08-19T09:17:29.234Z,99221.38
2022-08-19T09:19:59.846Z,99226.00
2022-08-19T09:22:30.089Z,99216.25
2022-08-19T09:24:59.447Z,99218.41
2022-08-19T09:27:42.252Z,99218.38
2022-08-19T09:30:16.134Z,99209.75
2022-08-19T09:32:45.054Z,99212.72
2022-08-19T09:35:14.921Z,99208.59
2022-08-19T09:37:44.832Z,99200.50
2022-08-19T09:40:15.410Z,99205.25
2022-08-19T09:42:49.635Z,99211.00
2022-08-19T09:45:22.252Z,99205.97
2022-08-19T09:47:53.959Z,99211.22
2022-08-19T09:50:24.813Z,99199.78
2022-08-19T09:52:57.126Z,99199.63
2022-08-19T09:55:31.580Z,99203.72
2022-08-19T09:58:03.268Z,99198.78
2022-08-19T10:00:32.449Z,99191.63
2022-08-19T10:03:00.988Z,99183.09
2022-08-19T10:05:48.394Z,99183.50
2022-08-19T10:08:18.153Z,99185.81
2022-08-19T10:10:48.839Z,99182.25
2022-08-19T10:13:22.989Z,99177.75
2022-08-19T10:15:52.480Z,99179.44
2022-08-19T10:18:22.745Z,99167.84
2022-08-19T10:20:53.546Z,99167.59
2022-08-19T10:23:23.320Z,99170.09
2022-08-19T10:25:54.623Z,99159.53
2022-08-19T10:28:24.005Z,99160.72
2022-08-19T10:30:52.130Z,99150.88
2022-08-19T10:33:38.437Z,99150.09
2022-08-19T10:36:12.179Z,99150.44
2022-08-19T10:38:40.384Z,99156.38
2022-08-19T10:41:24.509Z,99146.03
2022-08-19T10:43:55.416Z,99149.84
2022-08-19T10:46:25.259Z,99153.44
2022-08-19T10:48:53.804Z,99150.69
2022-08-19T10:51:47.860Z,99145.69
2022-08-19T10:54:16.427Z,99147.13
2022-08-19T10:56:53.916Z,99134.59
2022-08-19T10:59:26.976Z,99139.78
2022-08-19T11:01:56.744Z,99144.81
2022-08-19T11:04:28.939Z,99140.00
2022-08-19T11:06:58.542Z,99126.72
2022-08-19T11:09:33.974Z,99125.81
2022-08-19T11:12:04.725Z,99119.91
2022-08-19T11:14:34.947Z,99119.75
2022-08-19T11:17:03.868Z,99124.19
2022-08-19T11:19:32.129Z,99125.66
2022-08-19T11:22:02.378Z,99118.09
2022-08-19T11:24:32.862Z,99110.97
2022-08-19T11:27:08.400Z,99113.88
2022-08-19T11:29:37.328Z,99113.25
2022-08-19T11:32:08.125Z,99113.63
2022-08-19T11:34:36.422Z,99104.47
2022-08-19T11:37:05.358Z,99108.78
2022-08-19T11:39:35.364Z,99108.59
2022-08-19T11:42:26.162Z,99100.84
2022-08-19T11:44:54.986Z,99111.22
2022-08-19T11:47:23.163Z,99104.03
2022-08-19T11:49:51.196Z,99098.59
2022-08-19T11:52:19.322Z,99099.06
2022-08-19T11:54:47.285Z,99094.84
2022-08-19T11:57:18.041Z,99089.78
2022-08-19T11:59:50.791Z,99087.75
2022-08-19T12:02:20.058Z,99084.03
2022-08-19T12:04:48.452Z,99086.47
2022-08-19T12:07:16.795Z,99077.88
2022-08-19T12:09:44.885Z,99076.19
2022-08-19T12:12:14.327Z,99077.06
2022-08-19T12:14:43.721Z,99075.72
2022-08-19T12:17:12.468Z,99064.22
2022-08-19T12:19:41.940Z,99069.13
2022-08-19T12:22:10.588Z,99066.72
2022-08-19T12:24:38.596Z,99064.91
2022-08-19T12:27:06.710Z,99065.66
2022-08-19T12:29:42.561Z,99059.16
2022-08-19T12:32:12.420Z,99055.81
2022-08-19T12:34:40.993Z,99061.94
2022-08-19T12:37:09.602Z,99058.25
2022-08-19T12:39:40.192Z,99052.47
2022-08-19T12:42:09.770Z,99054.56
2022-08-19T12:44:38.739Z,99052.41
2022-08-19T12:47:12.582Z,99054.91
2022-08-19T12:49:54.234Z,99048.44
2022-08-19T12:52:26.278Z,99045.06
2022-08-19T12:54:56.210Z,99049.66
2022-08-19T12:57:32.975Z,99041.91
2022-08-19T13:00:05.449Z,99041.50
2022-08-19T13:02:38.772Z,99038.22
2022-08-19T13:05:09.689Z,99042.63
2022-08-19T13:07:38.413Z,99038.59
2022-08-19T13:10:08.093Z,99033.19
2022-08-19T13:12:36.282Z,99032.28
2022-08-19T13:15:10.953Z,99034.72
2022-08-19T13:17:42.144Z,99029.91
2022-08-19T13:20:14.874Z,99023.88
2022-08-19T13:22:43.421Z,99027.53
2022-08-19T13:25:13.000Z,99028.38
2022-08-19T13:27:41.938Z,99011.56
2022-08-19T13:30:30.948Z,99024.06
2022-08-19T13:33:18.752Z,99018.56
2022-08-19T13:35:49.533Z,99020.31
2022-08-19T13:38:21.489Z,99022.19
2022-08-19T13:40:51.366Z,99014.38
2022-08-19T13:43:23.435Z,99014.28
2022-08-19T13:45:54.834Z,99006.38
2022-08-19T13:48:25.176Z,99016.88
2022-08-19T13:50:53.320Z,99014.09
2022-08-19T13:53:21.340Z,98995.63
2022-08-19T13:55:50.947Z,99004.25
2022-08-19T13:58:18.920Z,99010.06
2022-08-19T14:00:49.391Z,99003.25
2022-08-19T14:03:17.961Z,99002.44
2022-08-19T14:05:47.753Z,98990.44
2022-08-19T14:08:15.858Z,98996.63
2022-08-19T14:10:45.490Z,98998.78
2022-08-19T14:13:17.561Z,98995.72
2022-08-19T14:15:46.404Z,98988.59
2022-08-19T14:18:14.427Z,98986.34
2022-08-19T14:20:43.048Z,98980.63
2022-08-19T14:23:13.280Z,98993.47
2022-08-19T14:25:41.287Z,98992.22
2022-08-19T14:28:09.578Z,98985.66
2022-08-19T14:30:39.730Z,98990.47
2022-08-19T14:33:09.445Z,98984.56
2022-08-19T14:35:38.108Z,98976.38
2022-08-19T14:38:09.183Z,98983.41
2022-08-19T14:40:41.616Z,98988.03
2022-08-19T14:43:09.940Z,98988.94
2022-08-19T14:45:40.984Z,98967.66
2022-08-19T14:48:18.972Z,98979.50
2022-08-19T14:50:47.640Z,98971.47
2022-08-19T14:53:15.683Z,98982.00
2022-08-19T14:55:46.171Z,98975.81
2022-08-19T14:58:29.419Z,98974.50
2022-08-19T15:00:59.871Z,98971.34
2022-08-19T15:03:28.172Z,98972.34
2022-08-19T15:05:57.573Z,98972.34
2022-08-19T15:08:26.478Z,98968.84
2022-08-19T15:10:58.251Z,98969.28
2022-08-19T15:13:27.586Z,98969.38
2022-08-19T15:15:56.422Z,98960.63
2022-08-19T15:18:24.411Z,98948.28
2022-08-19T15:20:53.404Z,98963.84
2022-08-19T15:23:22.504Z,98958.91
2022-08-19T15:25:56.567Z,98957.88
2022-08-19T15:28:29.366Z,98959.53
2022-08-19T15:30:57.564Z,98960.63
2022-08-19T15:33:25.612Z,98953.41
2022-08-19T15:35:54.103Z,98943.09
2022-08-19T15:38:24.476Z,98944.88
2022-08-19T15:40:52.946Z,98943.25
2022-08-19T15:43:22.817Z,98947.72
2022-08-19T15:45:52.261Z,98939.88
2022-08-19T15:48:20.257Z,98944.06
2022-08-19T15:50:48.422Z,98939.88
2022-08-19T15:53:17.615Z,98940.66
2022-08-19T15:55:48.657Z,98937.56
2022-08-19T15:58:34.498Z,98923.69
2022-08-19T16:01:24.388Z,98937.44
2022-08-19T16:04:15.532Z,98936.53
2022-08-19T16:06:48.777Z,98920.47
2022-08-19T16:09:18.630Z,98933.31
2022-08-19T16:11:56.635Z,98932.75
2022-08-19T16:14:26.307Z,98932.31
2022-08-19T16:16:56.987Z,98931.63
2022-08-19T16:19:25.587Z,98941.28
2022-08-19T16:21:56.353Z,98939.06
2022-08-19T16:24:26.869Z,98924.59
2022-08-19T16:26:55.178Z,98920.66
2022-08-19T16:29:33.554Z,98944.72
2022-08-19T16:32:04.791Z,98939.16
2022-08-19T16:34:33.845Z,98944.00
2022-08-19T16:37:02.863Z,98940.28
2022-08-19T16:39:31.209Z,98949.53
2022-08-19T16:41:59.321Z,98941.56
2022-08-19T16:44:29.459Z,98948.88
2022-08-19T16:46:59.536Z,98952.00
2022-08-19T16:49:53.976Z,98941.91
2022-08-19T16:52:19.571Z,98953.25
2022-08-19T16:54:48.031Z,98945.81
2022-08-19T16:57:16.179Z,98945.00
2022-08-19T16:59:49.348Z,98951.19
2022-08-19T17:02:18.109Z,98954.47
2022-08-19T17:04:57.546Z,98949.94
2022-08-19T17:07:26.546Z,98960.59
2022-08-19T17:09:55.141Z,98954.28
2022-08-19T17:12:30.394Z,98957.38
2022-08-19T17:15:00.733Z,98968.00
2022-08-19T17:17:29.574Z,98966.81
2022-08-19T17:20:00.487Z,98977.75
2022-08-19T17:22:28.619Z,98978.84
2022-08-19T17:24:58.222Z,98982.75
2022-08-19T17:27:31.352Z,98990.97
2022-08-19T17:30:00.936Z,98988.53
2022-08-19T17:32:29.052Z,98989.94
2022-08-19T17:34:58.868Z,98992.47
2022-08-19T17:37:27.360Z,98987.00
2022-08-19T17:39:55.635Z,98979.13
2022-08-19T17:42:24.047Z,99008.91
2022-08-19T17:44:52.081Z,99008.44
2022-08-19T17:47:21.214Z,99016.06
2022-08-19T17:49:49.594Z,99018.00
2022-08-19T17:52:19.359Z,99013.16
2022-08-19T17:54:47.859Z,99022.16
2022-08-19T17:57:16.319Z,99026.25
2022-08-19T17:59:44.734Z,99033.31
2022-08-19T18:02:13.317Z,99028.78
2022-08-19T18:04:46.885Z,99038.28
2022-08-19T18:07:21.667Z,99028.13
2022-08-19T18:09:52.743Z,99037.03
2022-08-19T18:12:24.596Z,99049.16
2022-08-19T18:14:52.625Z,99057.81
2022-08-19T18:17:23.278Z,99065.88
2022-08-19T18:19:51.575Z,99058.75
2022-08-19T18:22:27.445Z,99066.91
2022-08-19T18:24:56.431Z,99072.03
2022-08-19T18:27:24.641Z,99076.56
2022-08-19T18:29:54.586Z,99082.25
2022-08-19T18:32:24.048Z,99081.50
2022-08-19T18:34:53.050Z,99043.50
2022-08-19T18:37:21.307Z,99076.69
2022-08-19T18:40:08.225Z,99075.41
2022-08-19T18:42:54.090Z,99072.41
2022-08-19T18:45:39.545Z,99083.75
2022-08-19T18:48:29.123Z,99084.31
2022-08-19T18:50:59.246Z,99080.56
2022-08-19T18:53:29.614Z,99086.25
2022-08-19T18:55:59.797Z,99088.16
2022-08-19T18:58:32.390Z,99098.16
2022-08-19T19:01:02.959Z,99093.84
2022-08-19T19:03:31.106Z,99096.03
2022-08-19T19:05:59.621Z,99105.22
2022-08-19T19:08:28.189Z,99093.06
2022-08-19T19:11:01.037Z,99102.78
2022-08-19T19:13:29.922Z,99101.16
2022-08-19T19:16:01.317Z,99105.78
2022-08-19T19:18:29.683Z,99107.94
2022-08-19T19:20:58.469Z,99117.13
2022-08-19T19:23:26.804Z,99106.59
2022-08-19T19:25:54.877Z,99096.88
2022-08-19T19:28:28.138Z,99102.25
2022-08-19T19:30:58.777Z,99120.34
2022-08-19T19:33:27.058Z,99121.94
2022-08-19T19:35:55.463Z,99114.88
2022-08-19T19:38:23.524Z,99126.75
2022-08-19T19:40:51.589Z,99129.94
2022-08-19T19:43:19.589Z,99114.53
2022-08-19T19:45:50.130Z,99129.06
2022-08-19T19:48:18.307Z,99125.00
2022-08-19T19:50:53.288Z,99124.94
2022-08-19T19:53:26.180Z,99113.25
2022-08-19T19:55:57.715Z,99121.31
2022-08-19T19:58:28.811Z,99114.34
2022-08-19T20:00:59.400Z,99130.47
2022-08-19T20:03:27.686Z,99119.03
2022-08-19T20:05:59.554Z,99118.97
2022-08-19T20:08:45.829Z,99136.31
2022-08-19T20:11:16.895Z,99138.44
2022-08-19T20:13:44.947Z,99145.53
2022-08-19T20:16:14.266Z,99152.03
2022-08-19T20:18:44.106Z,99153.19
2022-08-19T20:21:13.636Z,99151.06
2022-08-19T20:23:41.629Z,99158.06
2022-08-19T20:26:19.284Z,99155.56
2022-08-19T20:29:01.296Z,99161.75
2022-08-19T20:31:57.375Z,99159.50
2022-08-19T20:34:27.835Z,99159.97
2022-08-19T20:36:55.960Z,99159.94
2022-08-19T20:39:24.631Z,99164.22
2022-08-19T20:41:56.422Z,99159.56
2022-08-19T20:44:26.910Z,99150.75
2022-08-19T20:47:00.493Z,99170.59
2022-08-19T20:49:31.104Z,99162.03
2022-08-19T20:51:59.414Z,99169.47
2022-08-19T20:54:28.334Z,99164.31
2022-08-19T20:56:56.993Z,99169.91
2022-08-19T20:59:25.897Z,99162.22
2022-08-19T21:01:56.482Z,99167.88
2022-08-19T21:04:24.590Z,99167.31
2022-08-19T21:06:52.593Z,99165.38
2022-08-19T21:09:20.619Z,99164.28
2022-08-19T21:11:48.993Z,99172.84
2022-08-19T21:14:17.252Z,99163.56
2022-08-19T21:16:45.249Z,99173.53
2022-08-19T21:19:14.645Z,99169.72
2022-08-19T21:21:42.667Z,99175.81
2022-08-19T21:24:10.662Z,99177.03
2022-08-19T21:26:38.669Z,99183.78
2022-08-19T21:29:07.018Z,99183.47
2022-08-19T21:31:35.137Z,99184.03
2022-08-19T21:34:03.389Z,99179.78
2022-08-19T21:36:32.885Z,99179.44
2022-08-19T21:39:00.823Z,99173.38
2022-08-19T21:41:28.950Z,99182.50
2022-08-19T21:43:57.092Z,99186.06
2022-08-19T21:46:25.291Z,99182.41
2022-08-19T21:48:53.336Z,99182.53
2022-08-19T21:51:21.477Z,99186.84
2022-08-19T21:53:52.848Z,99191.22
2022-08-19T21:56:21.195Z,99187.16
2022-08-19T21:58:49.200Z,99186.84
2022-08-19T22:01:17.389Z,99191.56
2022-08-19T22:03:45.560Z,99192.78
2022-08-19T22:06:13.510Z,99190.81
2022-08-19T22:08:42.245Z,99193.19
2022-08-19T22:11:12.109Z,99194.81
2022-08-19T22:13:41.709Z,99194.00
2022-08-19T22:16:11.189Z,99199.22
2022-08-19T22:18:39.326Z,99209.13
2022-08-19T22:21:11.707Z,99198.47
2022-08-19T22:23:40.769Z,99199.28
2022-08-19T22:26:09.180Z,99199.53
2022-08-19T22:28:39.600Z,99203.59
2022-08-19T22:31:08.460Z,99205.16
2022-08-19T22:33:38.355Z,99194.41
2022-08-19T22:36:07.538Z,99160.56
2022-08-19T22:38:37.430Z,99205.78
2022-08-19T22:41:07.654Z,99207.34
2022-08-19T22:43:36.917Z,99205.06
2022-08-19T22:46:15.053Z,99218.97
2022-08-19T22:48:46.438Z,99212.06
2022-08-19T22:51:31.621Z,99215.38
2022-08-19T22:53:59.675Z,99211.56
2022-08-19T22:56:27.805Z,99213.84
2022-08-19T22:58:55.861Z,99214.97
2022-08-19T23:01:30.433Z,99211.47
2022-08-19T23:04:00.138Z,99214.38
2022-08-19T23:06:33.849Z,99211.47
2022-08-19T23:09:04.842Z,99211.28
2022-08-19T23:11:38.055Z,99207.63
2022-08-19T23:14:10.450Z,99206.34
2022-08-19T23:16:41.680Z,99204.50
2022-08-19T23:19:10.171Z,99205.28
2022-08-19T23:21:38.427Z,99202.13
2022-08-19T23:24:06.890Z,99199.84
2022-08-19T23:26:36.113Z,99196.94
2022-08-19T23:29:22.788Z,99192.38
2022-08-19T23:31:52.661Z,99195.19
2022-08-19T23:34:20.705Z,99192.00
2022-08-19T23:36:50.744Z,99194.25
2022-08-19T23:39:19.428Z,99192.69
2022-08-19T23:41:47.640Z,99179.66
2022-08-19T23:44:15.681Z,99194.41
2022-08-19T23:46:54.546Z,99200.84
2022-08-19T23:49:25.621Z,99188.47
2022-08-19T23:51:55.071Z,99186.00
2022-08-19T23:54:23.379Z,99193.84
2022-08-19T23:57:02.342Z,99193.84
2022-08-19T23:59:30.317Z,99192.31
